createdAt,value
2024-02-13T00:00:14.300Z,2.5
2024-02-13T00:01:16.305Z,2.5
2024-02-13T00:02:18.330Z,2.5
2024-02-13T00:03:20.346Z,2.5
2024-02-13T00:04:22.284Z,2.5
2024-02-13T00:05:24.350Z,2.4
2024-02-13T00:06:26.305Z,2.4
2024-02-13T00:07:28.314Z,2.4
2024-02-13T00:08:33.292Z,2.4
2024-02-13T00:09:46.615Z,2.4
2024-02-13T00:10:48.585Z,2.4
2024-02-13T00:11:50.756Z,2.4
2024-02-13T00:12:52.578Z,2.4
2024-02-13T00:13:54.583Z,2.4
2024-02-13T00:14:56.616Z,2.4
2024-02-13T00:15:58.605Z,2.4
2024-02-13T00:17:00.599Z,2.5
2024-02-13T00:18:02.722Z,2.5
2024-02-13T00:19:04.578Z,2.5
2024-02-13T00:20:06.609Z,2.5
2024-02-13T00:21:08.609Z,2.5
2024-02-13T00:22:10.574Z,2.5
2024-02-13T00:23:12.595Z,2.5
2024-02-13T00:24:14.574Z,2.5
2024-02-13T00:25:16.624Z,2.5
2024-02-13T00:26:18.639Z,2.5
2024-02-13T00:27:20.586Z,2.5
2024-02-13T00:28:22.564Z,2.5
2024-02-13T00:29:24.586Z,2.5
2024-02-13T00:30:26.592Z,2.5
2024-02-13T00:31:28.562Z,2.5
2024-02-13T00:32:30.599Z,2.5
2024-02-13T00:33:32.619Z,2.5
2024-02-13T00:34:34.673Z,2.6
2024-02-13T00:35:36.604Z,2.6
2024-02-13T00:36:38.648Z,2.6
2024-02-13T00:37:40.617Z,2.6
2024-02-13T00:38:42.570Z,2.5
2024-02-13T00:39:44.575Z,2.6
2024-02-13T00:40:46.581Z,2.6
2024-02-13T00:41:48.724Z,2.6
2024-02-13T00:42:50.544Z,2.6
2024-02-13T00:43:52.574Z,2.6
2024-02-13T00:44:54.608Z,2.7
2024-02-13T00:45:56.560Z,2.6
2024-02-13T00:46:58.627Z,2.6
2024-02-13T00:48:00.672Z,2.7
2024-02-13T00:49:02.644Z,2.7
2024-02-13T00:50:04.555Z,2.7
2024-02-13T00:51:06.553Z,2.7
2024-02-13T00:52:08.539Z,2.7
2024-02-13T00:53:10.576Z,2.7
2024-02-13T00:54:12.559Z,2.7
2024-02-13T00:55:14.539Z,2.7
2024-02-13T00:56:16.581Z,2.7
2024-02-13T00:57:18.725Z,2.7
2024-02-13T00:58:20.561Z,2.7
2024-02-13T00:59:22.644Z,2.7
2024-02-13T01:00:24.524Z,2.7
2024-02-13T01:01:26.525Z,2.7
2024-02-13T01:02:28.565Z,2.7
2024-02-13T01:03:30.580Z,2.7
2024-02-13T01:04:32.572Z,2.8
2024-02-13T01:05:34.537Z,2.7
2024-02-13T01:06:36.607Z,2.7
2024-02-13T01:07:38.540Z,2.8
2024-02-13T01:08:40.537Z,2.7
2024-02-13T01:09:42.513Z,2.8
2024-02-13T01:10:44.513Z,2.8
2024-02-13T01:11:46.646Z,2.8
2024-02-13T01:12:48.610Z,2.8
2024-02-13T01:13:50.509Z,2.8
2024-02-13T01:14:52.613Z,2.8
2024-02-13T01:15:54.507Z,2.8
2024-02-13T01:16:56.541Z,2.8
2024-02-13T01:17:58.571Z,2.8
2024-02-13T01:19:00.654Z,2.8
2024-02-13T01:20:02.513Z,2.8
2024-02-13T01:21:04.502Z,2.8
2024-02-13T01:22:06.524Z,2.8
2024-02-13T01:23:08.553Z,2.8
2024-02-13T01:24:10.498Z,2.8
2024-02-13T01:25:12.500Z,2.8
2024-02-13T01:26:14.532Z,2.8
2024-02-13T01:27:16.513Z,2.8
2024-02-13T01:28:18.493Z,2.8
2024-02-13T01:29:20.511Z,2.8
2024-02-13T01:30:22.488Z,2.8
2024-02-13T01:31:24.512Z,2.8
2024-02-13T01:32:26.510Z,2.7
2024-02-13T01:33:28.588Z,2.7
2024-02-13T01:34:30.505Z,2.7
2024-02-13T01:35:32.531Z,2.7
2024-02-13T01:36:34.485Z,2.7
2024-02-13T01:37:36.516Z,2.7
2024-02-13T01:38:38.926Z,2.7
2024-02-13T01:39:40.903Z,2.7
2024-02-13T01:40:42.987Z,2.6
2024-02-13T01:41:45.044Z,2.6
2024-02-13T01:42:47.092Z,2.6
2024-02-13T01:43:48.478Z,2.6
2024-02-13T01:44:50.537Z,2.6
2024-02-13T01:45:52.478Z,2.6
2024-02-13T01:46:54.471Z,2.7
2024-02-13T01:47:56.602Z,2.6
2024-02-13T01:48:58.564Z,2.7
2024-02-13T01:50:00.510Z,2.6
2024-02-13T01:51:02.518Z,2.7
2024-02-13T01:52:04.462Z,2.7
2024-02-13T01:53:06.464Z,2.7
2024-02-13T01:54:08.488Z,2.7
2024-02-13T01:55:10.458Z,2.7
2024-02-13T01:56:12.508Z,2.7
2024-02-13T01:57:14.452Z,2.6
2024-02-13T01:58:16.511Z,2.7
2024-02-13T01:59:18.514Z,2.7
2024-02-13T02:00:20.453Z,2.7
2024-02-13T02:01:22.457Z,2.7
2024-02-13T02:02:24.478Z,2.7
2024-02-13T02:03:26.506Z,2.7
2024-02-13T02:04:28.481Z,2.7
2024-02-13T02:05:30.468Z,2.6
2024-02-13T02:06:32.499Z,2.6
2024-02-13T02:07:34.471Z,2.5
2024-02-13T02:08:36.506Z,2.6
2024-02-13T02:09:38.438Z,2.5
2024-02-13T02:10:40.452Z,2.5
2024-02-13T02:11:42.472Z,2.5
2024-02-13T02:12:44.472Z,2.5
2024-02-13T02:13:46.455Z,2.5
2024-02-13T02:14:48.513Z,2.5
2024-02-13T02:15:50.431Z,2.5
2024-02-13T02:16:52.461Z,2.5
2024-02-13T02:17:54.561Z,2.5
2024-02-13T02:18:56.484Z,2.5
2024-02-13T02:19:58.426Z,2.5
2024-02-13T02:21:00.430Z,2.5
2024-02-13T02:22:02.453Z,2.5
2024-02-13T02:23:04.419Z,2.5
2024-02-13T02:24:06.427Z,2.4
2024-02-13T02:25:08.427Z,2.4
2024-02-13T02:26:10.490Z,2.4
2024-02-13T02:27:12.451Z,2.4
2024-02-13T02:28:14.413Z,2.4
2024-02-13T02:29:16.476Z,2.3
2024-02-13T02:30:18.435Z,2.3
2024-02-13T02:31:20.440Z,2.3
2024-02-13T02:32:22.431Z,2.3
2024-02-13T02:33:24.597Z,2.4
2024-02-13T02:34:26.460Z,2.3
2024-02-13T02:35:28.458Z,2.3
2024-02-13T02:36:30.432Z,2.3
2024-02-13T02:37:32.405Z,2.3
2024-02-13T02:38:34.406Z,2.3
2024-02-13T02:39:36.395Z,2.3
2024-02-13T02:40:38.440Z,2.3
2024-02-13T02:41:40.431Z,2.3
2024-02-13T02:42:42.396Z,2.3
2024-02-13T02:43:44.482Z,2.3
2024-02-13T02:44:46.492Z,2.3
2024-02-13T02:45:48.416Z,2.3
2024-02-13T02:46:50.413Z,2.3
2024-02-13T02:47:52.453Z,2.4
2024-02-13T02:48:54.425Z,2.4
2024-02-13T02:49:56.408Z,2.4
2024-02-13T02:50:58.437Z,2.3
2024-02-13T02:52:00.379Z,2.3
2024-02-13T02:53:02.376Z,2.3
2024-02-13T02:54:04.522Z,2.4
2024-02-13T02:55:06.407Z,2.3
2024-02-13T02:56:08.402Z,2.3
2024-02-13T02:57:10.372Z,2.4
2024-02-13T02:58:12.373Z,2.3
2024-02-13T02:59:14.403Z,2.3
2024-02-13T03:00:16.407Z,2.3
2024-02-13T03:01:18.402Z,2.3
2024-02-13T03:02:20.396Z,2.3
2024-02-13T03:03:22.968Z,2.3
2024-02-13T03:04:24.393Z,2.3
2024-02-13T03:05:26.400Z,2.3
2024-02-13T03:06:28.402Z,2.3
2024-02-13T03:07:30.359Z,2.3
2024-02-13T03:08:32.389Z,2.3
2024-02-13T03:09:34.357Z,2.3
2024-02-13T03:10:36.360Z,2.3
2024-02-13T03:11:38.397Z,2.3
2024-02-13T03:12:40.380Z,2.3
2024-02-13T03:13:42.405Z,2.3
2024-02-13T03:14:44.394Z,2.2
2024-02-13T03:15:46.376Z,2.2
2024-02-13T03:16:48.358Z,2.2
2024-02-13T03:17:50.465Z,2.2
2024-02-13T03:18:52.389Z,2.2
2024-02-13T03:19:54.350Z,2.2
2024-02-13T03:20:56.422Z,2.1
2024-02-13T03:21:58.374Z,2.1
2024-02-13T03:23:00.367Z,2.1
2024-02-13T03:24:02.365Z,2.1
2024-02-13T03:25:05.336Z,2.1
2024-02-13T03:26:06.342Z,2.1
2024-02-13T03:27:08.375Z,2.1
2024-02-13T03:28:10.356Z,2.1
2024-02-13T03:29:12.349Z,2.1
2024-02-13T03:30:14.346Z,2.1
2024-02-13T03:31:16.394Z,2.1
2024-02-13T03:32:18.390Z,2.1
2024-02-13T03:33:20.371Z,2.1
2024-02-13T03:34:22.501Z,2.1
2024-02-13T03:35:24.337Z,2.1
2024-02-13T03:36:26.354Z,2.1
2024-02-13T03:37:28.328Z,2.1
2024-02-13T03:38:30.363Z,2.2
2024-02-13T03:39:32.322Z,2.1
2024-02-13T03:40:34.352Z,2.2
2024-02-13T03:41:36.368Z,2.2
2024-02-13T03:42:38.331Z,2.2
2024-02-13T03:43:40.323Z,2.2
2024-02-13T03:44:42.322Z,2.2
2024-02-13T03:45:44.344Z,2.2
2024-02-13T03:46:46.340Z,2.2
2024-02-13T03:47:48.436Z,2.2
2024-02-13T03:48:50.376Z,2.2
2024-02-13T03:49:52.351Z,2.2
2024-02-13T03:50:54.353Z,2.2
2024-02-13T03:51:56.309Z,2.2
2024-02-13T03:52:58.307Z,2.2
2024-02-13T03:54:00.307Z,2.2
2024-02-13T03:55:02.335Z,2.2
2024-02-13T03:56:04.301Z,2.2
2024-02-13T03:57:06.304Z,2.2
2024-02-13T03:58:08.310Z,2.2
2024-02-13T03:59:11.996Z,2.2
2024-02-13T04:00:15.042Z,2.2
2024-02-13T04:01:17.018Z,2.2
2024-02-13T04:02:19.090Z,2.2
2024-02-13T04:03:21.023Z,2.2
2024-02-13T04:04:23.035Z,2.2
2024-02-13T04:05:25.040Z,2.3
2024-02-13T04:06:27.077Z,2.3
2024-02-13T04:07:29.019Z,2.3
2024-02-13T04:08:31.056Z,2.3
2024-02-13T04:09:33.035Z,2.3
2024-02-13T04:10:35.012Z,2.3
2024-02-13T04:11:37.237Z,2.3
2024-02-13T04:12:38.996Z,2.3
2024-02-13T04:13:41.036Z,2.3
2024-02-13T04:14:43.026Z,2.4
2024-02-13T04:15:44.996Z,2.4
2024-02-13T04:16:46.996Z,2.4
2024-02-13T04:17:49.173Z,2.4
2024-02-13T04:18:51.053Z,2.4
2024-02-13T04:19:53.004Z,2.4
2024-02-13T04:20:55.054Z,2.4
2024-02-13T04:21:56.997Z,2.5
2024-02-13T04:22:59.012Z,2.5
2024-02-13T04:24:01.028Z,2.5
2024-02-13T04:25:03.009Z,2.5
2024-02-13T04:26:08.343Z,2.5
2024-02-13T04:27:26.442Z,2.5
2024-02-13T04:28:28.652Z,2.5
2024-02-13T04:29:31.306Z,2.5
2024-02-13T04:30:32.645Z,2.5
2024-02-13T04:31:34.649Z,2.5
2024-02-13T04:32:36.739Z,2.5
2024-02-13T04:33:38.802Z,2.5
2024-02-13T04:34:40.665Z,2.5
2024-02-13T04:35:42.644Z,2.5
2024-02-13T04:36:44.649Z,2.5
2024-02-13T04:37:46.643Z,2.5
2024-02-13T04:38:48.788Z,2.5
2024-02-13T04:39:50.613Z,2.5
2024-02-13T04:40:52.627Z,2.5
2024-02-13T04:41:54.642Z,2.5
2024-02-13T04:42:56.610Z,2.5
2024-02-13T04:43:58.620Z,2.5
2024-02-13T04:45:00.607Z,2.5
2024-02-13T04:46:02.628Z,2.5
2024-02-13T04:47:04.627Z,2.5
2024-02-13T04:48:06.768Z,2.5
2024-02-13T04:49:08.720Z,2.5
2024-02-13T04:50:12.832Z,2.5
2024-02-13T04:51:17.863Z,2.5
2024-02-13T04:52:19.836Z,2.5
2024-02-13T04:53:21.863Z,2.5
2024-02-13T04:54:23.936Z,2.5
2024-02-13T04:55:25.862Z,2.5
2024-02-13T04:56:27.883Z,2.5
2024-02-13T04:57:29.823Z,2.5
2024-02-13T04:58:31.827Z,2.5
2024-02-13T04:59:33.844Z,2.5
2024-02-13T05:00:35.847Z,2.5
2024-02-13T05:01:37.821Z,2.5
2024-02-13T05:02:39.823Z,2.5
2024-02-13T05:03:41.816Z,2.5
2024-02-13T05:04:43.875Z,2.5
2024-02-13T05:05:45.939Z,2.5
2024-02-13T05:06:47.845Z,2.5
2024-02-13T05:07:49.810Z,2.5
2024-02-13T05:08:51.815Z,2.5
2024-02-13T05:09:53.833Z,2.5
2024-02-13T05:10:55.814Z,2.5
2024-02-13T05:11:57.958Z,2.5
2024-02-13T05:12:59.801Z,2.5
2024-02-13T05:14:01.836Z,2.5
2024-02-13T05:15:03.830Z,2.5
2024-02-13T05:16:05.808Z,2.5
2024-02-13T05:17:07.801Z,2.5
2024-02-13T05:18:09.890Z,2.5
2024-02-13T05:19:11.897Z,2.5
2024-02-13T05:20:13.892Z,2.5
2024-02-13T05:21:15.792Z,2.5
2024-02-13T05:22:17.806Z,2.5
2024-02-13T05:23:19.829Z,2.5
2024-02-13T05:24:21.838Z,2.5
2024-02-13T05:25:23.796Z,2.5
2024-02-13T05:26:25.830Z,2.5
2024-02-13T05:27:27.786Z,2.5
2024-02-13T05:28:29.806Z,2.5
2024-02-13T05:29:31.790Z,2.5
2024-02-13T05:30:33.787Z,2.5
2024-02-13T05:31:35.782Z,2.5
2024-02-13T05:32:37.870Z,2.5
2024-02-13T05:33:39.892Z,2.5
2024-02-13T05:34:41.806Z,2.5
2024-02-13T05:35:43.853Z,2.5
2024-02-13T05:36:45.780Z,2.5
2024-02-13T05:37:47.799Z,2.5
2024-02-13T05:38:49.959Z,2.5
2024-02-13T05:39:51.774Z,2.5
2024-02-13T05:40:53.770Z,2.4
2024-02-13T05:41:55.803Z,2.4
2024-02-13T05:42:57.797Z,2.4
2024-02-13T05:43:59.774Z,2.4
2024-02-13T05:45:01.764Z,2.4
2024-02-13T05:46:03.780Z,2.4
2024-02-13T05:47:05.786Z,2.4
2024-02-13T05:48:07.817Z,2.4
2024-02-13T05:49:09.765Z,2.4
2024-02-13T05:50:11.816Z,2.3
2024-02-13T05:51:13.810Z,2.3
2024-02-13T05:52:15.776Z,2.3
2024-02-13T05:53:17.794Z,2.3
2024-02-13T05:54:19.850Z,2.3
2024-02-13T05:55:21.754Z,2.3
2024-02-13T05:56:27.423Z,2.3
2024-02-13T05:57:29.348Z,2.3
2024-02-13T05:58:31.409Z,2.3
2024-02-13T05:59:33.401Z,2.3
2024-02-13T06:00:35.387Z,2.3
2024-02-13T06:01:37.454Z,2.3
2024-02-13T06:02:39.361Z,2.3
2024-02-13T06:03:41.385Z,2.3
2024-02-13T06:04:43.369Z,2.3
2024-02-13T06:05:45.481Z,2.2
2024-02-13T06:06:47.652Z,2.2
2024-02-13T06:07:49.535Z,2.2
2024-02-13T06:08:51.576Z,2.3
2024-02-13T06:09:53.582Z,2.2
2024-02-13T06:10:55.608Z,2.2
2024-02-13T06:11:57.741Z,2.2
2024-02-13T06:12:59.529Z,2.2
2024-02-13T06:14:01.545Z,2.2
2024-02-13T06:15:03.580Z,2.2
2024-02-13T06:16:05.531Z,2.2
2024-02-13T06:17:07.531Z,2.2
2024-02-13T06:18:09.763Z,2.2
2024-02-13T06:19:11.606Z,2.2
2024-02-13T06:20:13.574Z,2.2
2024-02-13T06:21:15.536Z,2.2
2024-02-13T06:22:17.902Z,2.2
2024-02-13T06:23:19.535Z,2.1
2024-02-13T06:24:21.548Z,2.2
2024-02-13T06:25:23.538Z,2.1
2024-02-13T06:26:25.551Z,2.1
2024-02-13T06:27:27.521Z,2.1
2024-02-13T06:28:29.538Z,2
2024-02-13T06:29:31.555Z,2
2024-02-13T06:30:33.517Z,2
2024-02-13T06:31:35.521Z,1.9
2024-02-13T06:32:37.578Z,1.9
2024-02-13T06:33:39.711Z,1.9
2024-02-13T06:34:41.521Z,1.9
2024-02-13T06:35:43.662Z,1.9
2024-02-13T06:36:45.507Z,1.9
2024-02-13T06:37:47.585Z,1.9
2024-02-13T06:38:50.186Z,1.9
2024-02-13T06:39:51.885Z,1.9
2024-02-13T06:40:53.536Z,1.9
2024-02-13T06:41:55.550Z,1.9
2024-02-13T06:42:57.559Z,1.9
2024-02-13T06:43:59.496Z,1.9
2024-02-13T06:45:01.584Z,1.9
2024-02-13T06:46:03.501Z,1.9
2024-02-13T06:47:05.519Z,1.9
2024-02-13T06:48:07.612Z,1.9
2024-02-13T06:49:09.538Z,1.9
2024-02-13T06:50:12.070Z,1.9
2024-02-13T06:51:14.073Z,1.9
2024-02-13T06:52:16.086Z,1.9
2024-02-13T06:53:18.109Z,1.9
2024-02-13T06:54:20.358Z,1.9
2024-02-13T06:55:22.051Z,1.9
2024-02-13T06:56:24.101Z,1.9
2024-02-13T06:57:26.103Z,1.9
2024-02-13T06:58:28.265Z,1.9
2024-02-13T06:59:30.068Z,1.9
2024-02-13T07:00:32.170Z,1.9
2024-02-13T07:01:34.075Z,1.9
2024-02-13T07:02:36.051Z,1.9
2024-02-13T07:03:38.124Z,1.9
2024-02-13T07:04:40.059Z,1.9
2024-02-13T07:05:42.090Z,1.9
2024-02-13T07:06:49.262Z,1.9
2024-02-13T07:08:15.046Z,1.9
2024-02-13T07:09:16.977Z,1.9
2024-02-13T07:10:19.137Z,1.9
2024-02-13T07:11:20.899Z,1.9
2024-02-13T07:12:22.868Z,1.9
2024-02-13T07:13:24.845Z,1.9
2024-02-13T07:14:28.708Z,1.9
2024-02-13T07:15:30.330Z,1.9
2024-02-13T07:16:36.977Z,1.9
2024-02-13T07:17:48.125Z,1.9
2024-02-13T07:19:01.774Z,1.9
2024-02-13T07:20:03.835Z,1.9
2024-02-13T07:21:07.698Z,1.9
2024-02-13T07:22:09.563Z,1.9
2024-02-13T07:23:11.715Z,1.9
2024-02-13T07:24:13.583Z,1.9
2024-02-13T07:25:15.608Z,1.9
2024-02-13T07:26:17.574Z,1.9
2024-02-13T07:27:19.553Z,1.9
2024-02-13T07:28:21.554Z,1.9
2024-02-13T07:29:23.630Z,1.9
2024-02-13T07:30:25.550Z,1.9
2024-02-13T07:31:27.546Z,1.9
2024-02-13T07:32:29.614Z,1.9
2024-02-13T07:33:31.667Z,1.9
2024-02-13T07:34:33.578Z,1.9
2024-02-13T07:35:35.568Z,1.9
2024-02-13T07:36:37.599Z,1.9
2024-02-13T07:37:39.539Z,2
2024-02-13T07:38:41.576Z,2
2024-02-13T07:39:43.544Z,2
2024-02-13T07:40:45.828Z,2
2024-02-13T07:41:47.592Z,2
2024-02-13T07:42:49.566Z,2
2024-02-13T07:43:51.559Z,1.9
2024-02-13T07:44:53.558Z,2
2024-02-13T07:45:56.068Z,1.9
2024-02-13T07:46:57.524Z,1.9
2024-02-13T07:47:59.581Z,1.9
2024-02-13T07:49:01.624Z,1.9
2024-02-13T07:50:03.525Z,2
2024-02-13T07:51:05.528Z,2
2024-02-13T07:52:07.553Z,2
2024-02-13T07:53:09.823Z,2
2024-02-13T07:54:11.855Z,2
2024-02-13T07:55:13.515Z,2
2024-02-13T07:56:15.652Z,2
2024-02-13T07:57:17.886Z,2.1
2024-02-13T07:58:19.533Z,2.1
2024-02-13T07:59:21.544Z,2.1
2024-02-13T08:00:23.574Z,2.1
2024-02-13T08:01:25.684Z,2.1
2024-02-13T08:02:27.740Z,2.1
2024-02-13T08:03:29.816Z,2.1
2024-02-13T08:04:32.121Z,2.1
2024-02-13T08:05:33.991Z,2.1
2024-02-13T08:06:35.657Z,2.1
2024-02-13T08:07:37.528Z,2.1
2024-02-13T08:08:39.751Z,2.2
2024-02-13T08:09:41.815Z,2.2
2024-02-13T08:10:43.526Z,2.2
2024-02-13T08:11:45.692Z,2.2
2024-02-13T08:12:47.617Z,2.2
2024-02-13T08:13:49.852Z,2.3
2024-02-13T08:14:51.540Z,2.3
2024-02-13T08:15:53.520Z,2.3
2024-02-13T08:16:55.516Z,2.3
2024-02-13T08:17:57.573Z,2.3
2024-02-13T08:18:59.503Z,2.3
2024-02-13T08:20:01.545Z,2.3
2024-02-13T08:21:03.805Z,2.3
2024-02-13T08:22:06.911Z,2.3
2024-02-13T08:23:08.914Z,2.3
2024-02-13T08:24:11.522Z,2.3
2024-02-13T08:25:12.948Z,2.3
2024-02-13T08:26:14.938Z,2.3
2024-02-13T08:27:16.928Z,2.3
2024-02-13T08:28:19.429Z,2.3
2024-02-13T08:29:23.233Z,2.3
2024-02-13T08:30:25.245Z,2.3
2024-02-13T08:31:27.143Z,2.3
2024-02-13T08:32:29.230Z,2.4
2024-02-13T08:33:31.259Z,2.4
2024-02-13T08:34:33.291Z,2.4
2024-02-13T08:35:35.242Z,2.5
2024-02-13T08:36:37.143Z,2.5
2024-02-13T08:37:39.134Z,2.5
2024-02-13T08:38:41.134Z,2.5
2024-02-13T08:39:43.177Z,2.5
2024-02-13T08:40:45.159Z,2.5
2024-02-13T08:41:47.210Z,2.5
2024-02-13T08:42:49.181Z,2.5
2024-02-13T08:43:51.146Z,2.6
2024-02-13T08:44:53.163Z,2.6
2024-02-13T08:45:55.114Z,2.6
2024-02-13T08:46:57.118Z,2.7
2024-02-13T08:47:59.165Z,2.6
2024-02-13T08:49:01.384Z,2.6
2024-02-13T08:50:03.284Z,2.5
2024-02-13T08:51:05.209Z,2.5
2024-02-13T08:52:07.118Z,2.6
2024-02-13T08:53:09.137Z,2.7
2024-02-13T08:54:11.108Z,2.7
2024-02-13T08:55:13.105Z,2.8
2024-02-13T08:56:15.158Z,2.8
2024-02-13T08:57:17.117Z,2.8
2024-02-13T08:58:19.168Z,2.9
2024-02-13T08:59:21.112Z,2.9
2024-02-13T09:00:23.105Z,2.9
2024-02-13T09:01:25.184Z,3
2024-02-13T09:02:27.145Z,3
2024-02-13T09:03:29.121Z,3
2024-02-13T09:04:31.252Z,3
2024-02-13T09:05:33.178Z,3
2024-02-13T09:06:35.434Z,2.9
2024-02-13T09:07:37.116Z,2.9
2024-02-13T09:08:41.310Z,2.9
2024-02-13T09:09:43.902Z,2.9
2024-02-13T09:10:46.400Z,2.9
2024-02-13T09:11:47.967Z,3
2024-02-13T09:12:49.900Z,3.1
2024-02-13T09:13:51.913Z,3.1
2024-02-13T09:14:53.946Z,3.2
2024-02-13T09:15:55.884Z,3.3
2024-02-13T09:16:57.916Z,3.3
2024-02-13T09:18:00.008Z,3.2
2024-02-13T09:19:02.044Z,3.3
2024-02-13T09:20:03.911Z,3.3
2024-02-13T09:21:05.933Z,3.3
2024-02-13T09:22:07.906Z,3.3
2024-02-13T09:23:09.881Z,3.3
2024-02-13T09:24:11.877Z,3.3
2024-02-13T09:25:13.874Z,3.4
2024-02-13T09:26:15.948Z,3.5
2024-02-13T09:27:17.876Z,3.5
2024-02-13T09:28:19.890Z,3.5
2024-02-13T09:29:21.921Z,3.6
2024-02-13T09:30:24.174Z,3.6
2024-02-13T09:31:25.869Z,3.7
2024-02-13T09:32:28.017Z,3.7
2024-02-13T09:33:29.998Z,3.7
2024-02-13T09:34:31.943Z,3.7
2024-02-13T09:35:33.912Z,3.8
2024-02-13T09:36:35.873Z,3.8
2024-02-13T09:37:39.040Z,3.8
2024-02-13T09:38:44.562Z,3.7
2024-02-13T09:39:46.540Z,3.7
2024-02-13T09:40:48.509Z,3.7
2024-02-13T09:41:50.539Z,3.7
2024-02-13T09:42:52.501Z,3.7
2024-02-13T09:43:54.532Z,3.7
2024-02-13T09:44:56.617Z,3.7
2024-02-13T09:45:58.515Z,3.7
2024-02-13T09:47:00.504Z,3.8
2024-02-13T09:48:02.587Z,3.9
2024-02-13T09:49:04.581Z,3.9
2024-02-13T09:50:06.495Z,3.8
2024-02-13T09:51:08.554Z,3.8
2024-02-13T09:52:10.521Z,3.7
2024-02-13T09:53:12.524Z,3.7
2024-02-13T09:54:14.526Z,3.8
2024-02-13T09:55:16.489Z,3.9
2024-02-13T09:56:18.756Z,3.9
2024-02-13T09:57:20.492Z,3.9
2024-02-13T09:58:22.526Z,3.9
2024-02-13T09:59:24.531Z,4
2024-02-13T10:00:26.912Z,4.1
2024-02-13T10:01:28.508Z,4.2
2024-02-13T10:02:30.565Z,4.4
2024-02-13T10:03:32.569Z,4.5
2024-02-13T10:04:34.552Z,4.6
2024-02-13T10:05:36.510Z,4.7
2024-02-13T10:06:38.518Z,4.7
2024-02-13T10:07:41.856Z,4.8
2024-02-13T10:08:45.650Z,4.9
2024-02-13T10:09:47.640Z,5
2024-02-13T10:10:49.644Z,5.1
2024-02-13T10:11:51.704Z,5.1
2024-02-13T10:12:53.694Z,5.2
2024-02-13T10:13:55.647Z,5.2
2024-02-13T10:14:57.689Z,5.2
2024-02-13T10:15:59.663Z,5.1
2024-02-13T10:17:01.659Z,5
2024-02-13T10:18:04.034Z,5
2024-02-13T10:19:06.053Z,5
2024-02-13T10:20:08.109Z,4.9
2024-02-13T10:21:10.137Z,4.9
2024-02-13T10:22:12.534Z,5
2024-02-13T10:23:14.288Z,5
2024-02-13T10:24:16.659Z,4.9
2024-02-13T10:25:21.104Z,4.9
2024-02-13T10:26:26.297Z,4.9
2024-02-13T10:27:28.613Z,4.9
2024-02-13T10:28:30.648Z,4.7
2024-02-13T10:29:32.476Z,4.8
2024-02-13T10:30:34.782Z,4.9
2024-02-13T10:31:38.332Z,5.1
2024-02-13T10:32:43.987Z,5.3
2024-02-13T10:33:45.998Z,5.5
2024-02-13T10:34:47.991Z,5.5
2024-02-13T10:35:50.047Z,5.5
2024-02-13T10:36:51.956Z,5.5
2024-02-13T10:37:54.036Z,5.5
2024-02-13T10:38:56.008Z,5.6
2024-02-13T10:39:57.978Z,5.9
2024-02-13T10:40:59.976Z,6
2024-02-13T10:42:02.003Z,5.9
2024-02-13T10:43:03.952Z,5.8
2024-02-13T10:44:05.946Z,5.7
2024-02-13T10:45:08.508Z,5.9
2024-02-13T10:46:09.968Z,6.1
2024-02-13T10:47:11.973Z,6.1
2024-02-13T10:48:14.118Z,6.1
2024-02-13T10:49:16.074Z,5.9
2024-02-13T10:50:17.986Z,5.9
2024-02-13T10:51:19.934Z,6
2024-02-13T10:52:21.938Z,6
2024-02-13T10:53:23.942Z,6.1
2024-02-13T10:54:25.963Z,6.1
2024-02-13T10:55:27.945Z,6
2024-02-13T10:56:29.947Z,5.9
2024-02-13T10:57:31.978Z,5.9
2024-02-13T10:58:34.077Z,5.9
2024-02-13T10:59:35.967Z,5.8
2024-02-13T11:00:37.991Z,5.7
2024-02-13T11:01:39.960Z,5.8
2024-02-13T11:02:41.963Z,5.9
2024-02-13T11:03:44.272Z,6
2024-02-13T11:04:45.952Z,5.9
2024-02-13T11:05:47.954Z,5.8
2024-02-13T11:06:49.973Z,5.7
2024-02-13T11:07:51.989Z,5.6
2024-02-13T11:08:53.971Z,5.6
2024-02-13T11:09:55.918Z,5.7
2024-02-13T11:10:57.918Z,5.6
2024-02-13T11:12:00.122Z,5.6
2024-02-13T11:13:02.016Z,5.6
2024-02-13T11:14:03.909Z,5.5
2024-02-13T11:15:05.922Z,5.5
2024-02-13T11:16:07.911Z,5.4
2024-02-13T11:17:09.936Z,5.3
2024-02-13T11:18:11.992Z,5.3
2024-02-13T11:19:13.922Z,5.1
2024-02-13T11:20:15.935Z,5.1
2024-02-13T11:21:17.907Z,5
2024-02-13T11:22:20.062Z,5
2024-02-13T11:23:21.902Z,5
2024-02-13T11:24:23.921Z,5
2024-02-13T11:25:25.985Z,5
2024-02-13T11:26:27.924Z,5
2024-02-13T11:27:30.691Z,5
2024-02-13T11:28:32.484Z,5
2024-02-13T11:29:34.740Z,5.1
2024-02-13T11:30:36.711Z,5.2
2024-02-13T11:31:40.010Z,5.5
2024-02-13T11:32:41.856Z,6
2024-02-13T11:33:43.817Z,6.6
2024-02-13T11:34:45.894Z,7.1
2024-02-13T11:35:47.842Z,7.5
2024-02-13T11:36:49.632Z,7.9
2024-02-13T11:37:51.609Z,8.3
2024-02-13T11:38:53.690Z,8.4
2024-02-13T11:39:55.599Z,8.5
2024-02-13T11:40:57.627Z,8.4
2024-02-13T11:41:59.613Z,8.4
2024-02-13T11:43:01.603Z,8.5
2024-02-13T11:44:03.599Z,8.8
2024-02-13T11:45:05.635Z,8.8
2024-02-13T11:46:07.619Z,8.7
2024-02-13T11:47:09.591Z,8.5
2024-02-13T11:48:11.672Z,8.4
2024-02-13T11:49:13.723Z,8.1
2024-02-13T11:50:15.734Z,8
2024-02-13T11:51:17.679Z,7.6
2024-02-13T11:52:19.585Z,7.2
2024-02-13T11:53:21.676Z,6.8
2024-02-13T11:54:23.610Z,6.6
2024-02-13T11:55:25.613Z,6.3
2024-02-13T11:56:27.601Z,6.2
2024-02-13T11:57:29.594Z,6.1
2024-02-13T11:58:31.576Z,6
2024-02-13T11:59:33.628Z,5.9
2024-02-13T12:00:35.597Z,5.9
2024-02-13T12:01:37.576Z,5.9
2024-02-13T12:02:40.916Z,5.9
2024-02-13T12:03:41.764Z,5.8
2024-02-13T12:04:43.806Z,5.9
2024-02-13T12:05:45.739Z,5.9
2024-02-13T12:06:47.744Z,5.9
2024-02-13T12:07:49.720Z,6
2024-02-13T12:08:51.767Z,6
2024-02-13T12:09:54.010Z,6.1
2024-02-13T12:10:55.718Z,6.1
2024-02-13T12:11:57.858Z,6.1
2024-02-13T12:12:59.712Z,6.1
2024-02-13T12:14:01.800Z,6.2
2024-02-13T12:15:03.802Z,6.2
2024-02-13T12:16:05.731Z,6.2
2024-02-13T12:17:07.727Z,6.2
2024-02-13T12:18:09.865Z,6.3
2024-02-13T12:19:12.034Z,6.3
2024-02-13T12:20:13.841Z,6.3
2024-02-13T12:21:15.929Z,6.3
2024-02-13T12:22:17.937Z,6.3
2024-02-13T12:23:20.038Z,6.3
2024-02-13T12:24:22.056Z,6.4
2024-02-13T12:25:23.842Z,6.4
2024-02-13T12:26:26.608Z,6.5
2024-02-13T12:27:30.933Z,6.5
2024-02-13T12:28:33.324Z,6.4
2024-02-13T12:29:35.388Z,6.4
2024-02-13T12:30:37.466Z,6.4
2024-02-13T12:31:40.469Z,6.3
2024-02-13T12:32:41.698Z,6.3
2024-02-13T12:33:44.006Z,6.3
2024-02-13T12:34:45.545Z,6.2
2024-02-13T12:35:47.541Z,6.3
2024-02-13T12:36:49.497Z,6.2
2024-02-13T12:37:51.505Z,6.2
2024-02-13T12:38:53.585Z,6.2
2024-02-13T12:39:55.442Z,6.1
2024-02-13T12:40:57.986Z,6.1
2024-02-13T12:42:00.054Z,6
2024-02-13T12:43:02.927Z,6
2024-02-13T12:44:05.108Z,6
2024-02-13T12:45:07.210Z,6.1
2024-02-13T12:46:09.177Z,6.1
2024-02-13T12:47:10.929Z,6.2
2024-02-13T12:48:13.053Z,6.2
2024-02-13T12:49:15.463Z,6.3
2024-02-13T12:50:17.054Z,6.3
2024-02-13T12:51:19.081Z,6.4
2024-02-13T12:52:20.916Z,6.5
2024-02-13T12:53:22.961Z,6.5
2024-02-13T12:54:26.235Z,6.5
2024-02-13T12:55:30.769Z,6.5
2024-02-13T12:56:32.690Z,6.5
2024-02-13T12:57:35.173Z,6.6
2024-02-13T12:58:37.237Z,6.6
2024-02-13T12:59:38.635Z,6.6
2024-02-13T13:00:40.803Z,6.6
2024-02-13T13:01:42.795Z,6.6
2024-02-13T13:02:45.270Z,6.5
2024-02-13T13:03:46.944Z,6.5
2024-02-13T13:04:48.749Z,6.4
2024-02-13T13:05:51.180Z,6.4
2024-02-13T13:06:52.816Z,6.3
2024-02-13T13:07:54.634Z,6.3
2024-02-13T13:08:57.784Z,6.3
2024-02-13T13:09:59.162Z,6.3
2024-02-13T13:11:01.268Z,6.4
2024-02-13T13:12:04.037Z,6.4
2024-02-13T13:13:05.685Z,6.5
2024-02-13T13:14:07.215Z,6.5
2024-02-13T13:15:12.993Z,6.6
2024-02-13T13:16:25.984Z,6.6
2024-02-13T13:17:27.695Z,6.7
2024-02-13T13:18:29.666Z,6.6
2024-02-13T13:19:32.086Z,6.6
2024-02-13T13:20:33.578Z,6.5
2024-02-13T13:21:35.980Z,6.5
2024-02-13T13:22:38.020Z,6.5
2024-02-13T13:23:39.848Z,6.4
2024-02-13T13:24:41.547Z,6.4
2024-02-13T13:25:43.873Z,6.4
2024-02-13T13:26:45.627Z,6.4
2024-02-13T13:27:47.690Z,6.4
2024-02-13T13:28:50.103Z,6.5
2024-02-13T13:29:51.847Z,6.5
2024-02-13T13:30:53.888Z,6.5
2024-02-13T13:31:55.880Z,6.5
2024-02-13T13:32:57.816Z,6.4
2024-02-13T13:33:59.652Z,6.4
2024-02-13T13:35:01.953Z,6.3
2024-02-13T13:36:04.257Z,6.3
2024-02-13T13:37:06.171Z,6.3
2024-02-13T13:38:07.592Z,6.3
2024-02-13T13:39:09.561Z,6.3
2024-02-13T13:40:12.010Z,6.3
2024-02-13T13:41:13.546Z,6.3
2024-02-13T13:42:16.140Z,6.4
2024-02-13T13:43:17.628Z,6.4
2024-02-13T13:44:19.780Z,6.5
2024-02-13T13:45:21.533Z,6.6
2024-02-13T13:46:23.533Z,6.6
2024-02-13T13:47:25.564Z,6.7
2024-02-13T13:48:27.649Z,6.8
2024-02-13T13:49:29.533Z,6.8
2024-02-13T13:50:31.519Z,6.8
2024-02-13T13:51:33.526Z,6.8
2024-02-13T13:52:35.498Z,6.8
2024-02-13T13:53:37.534Z,6.9
2024-02-13T13:54:39.494Z,6.9
2024-02-13T13:55:41.520Z,6.9
2024-02-13T13:56:43.617Z,6.9
2024-02-13T13:57:45.488Z,6.9
2024-02-13T13:58:48.673Z,6.8
2024-02-13T13:59:52.488Z,6.8
2024-02-13T14:00:54.494Z,6.8
2024-02-13T14:01:56.494Z,6.7
2024-02-13T14:02:58.472Z,6.6
2024-02-13T14:04:00.719Z,6.6
2024-02-13T14:05:02.489Z,6.5
2024-02-13T14:06:04.638Z,6.5
2024-02-13T14:07:06.462Z,6.5
2024-02-13T14:08:08.467Z,6.5
2024-02-13T14:09:10.483Z,6.5
2024-02-13T14:10:12.491Z,6.5
2024-02-13T14:11:14.453Z,6.5
2024-02-13T14:12:16.447Z,6.5
2024-02-13T14:13:18.692Z,6.5
2024-02-13T14:14:20.493Z,6.5
2024-02-13T14:15:22.479Z,6.5
2024-02-13T14:16:24.460Z,6.5
2024-02-13T14:17:26.479Z,6.5
2024-02-13T14:18:28.617Z,6.5
2024-02-13T14:19:30.532Z,6.6